createdAt,value
2019-02-26T00:01:37.641Z,21.30
2019-02-26T00:04:42.567Z,20.57
2019-02-26T00:07:51.025Z,18.80
2019-02-26T00:10:56.689Z,19.93
2019-02-26T00:14:00.689Z,19.07
2019-02-26T00:17:08.515Z,20.97
2019-02-26T00:20:12.780Z,20.57
2019-02-26T00:23:19.797Z,20.77
2019-02-26T00:26:25.309Z,19.47
2019-02-26T00:29:32.025Z,18.90
2019-02-26T00:32:38.366Z,21.43
2019-02-26T00:35:44.390Z,20.60
2019-02-26T00:38:50.149Z,20.20
2019-02-26T00:41:55.774Z,20.50
2019-02-26T00:45:03.337Z,20.23
2019-02-26T00:48:08.227Z,21.77
2019-02-26T00:51:13.197Z,22.10
2019-02-26T00:54:20.226Z,22.10
2019-02-26T00:57:27.137Z,20.43
2019-02-26T01:00:33.078Z,22.13
2019-02-26T01:03:37.802Z,20.53
2019-02-26T01:06:42.741Z,21.97
2019-02-26T01:09:48.551Z,20.87
2019-02-26T01:12:54.356Z,21.23
2019-02-26T01:15:59.262Z,20.77
2019-02-26T01:19:04.176Z,20.90
2019-02-26T01:22:09.056Z,22.57
2019-02-26T01:25:15.776Z,22.90
2019-02-26T01:28:22.497Z,22.27
2019-02-26T01:31:29.087Z,22.17
2019-02-26T01:34:33.721Z,22.47
2019-02-26T01:37:38.597Z,22.80
2019-02-26T01:40:46.559Z,20.60
2019-02-26T01:43:50.994Z,22.80
2019-02-26T01:46:57.779Z,21.93
2019-02-26T01:50:04.084Z,20.63
2019-02-26T01:53:08.997Z,21.37
2019-02-26T01:56:13.831Z,21.40
2019-02-26T01:59:19.177Z,21.67
2019-02-26T02:02:25.264Z,20.83
2019-02-26T02:05:31.388Z,21.50
2019-02-26T02:08:39.309Z,22.53
2019-02-26T02:11:43.034Z,22.33
2019-02-26T02:14:47.947Z,23.93
2019-02-26T02:17:54.863Z,22.20
2019-02-26T02:20:59.365Z,21.60
2019-02-26T02:24:05.731Z,24.07
2019-02-26T02:27:12.653Z,22.27
2019-02-26T02:30:23.102Z,26.33
2019-02-26T02:33:27.426Z,25.30
2019-02-26T02:36:32.449Z,24.80
2019-02-26T02:39:37.382Z,25.23
2019-02-26T02:42:43.276Z,23.03
2019-02-26T02:45:49.998Z,23.77
2019-02-26T02:48:56.797Z,24.80
2019-02-26T02:52:04.063Z,24.63
2019-02-26T02:55:10.545Z,24.17
2019-02-26T02:58:18.142Z,25.50
2019-02-26T03:01:25.015Z,25.10
2019-02-26T03:04:31.301Z,25.60
2019-02-26T03:07:35.704Z,26.27
2019-02-26T03:10:43.056Z,26.80
2019-02-26T03:13:48.679Z,26.63
2019-02-26T03:16:53.759Z,28.40
2019-02-26T03:20:01.669Z,26.77
2019-02-26T03:23:07.295Z,26.57
2019-02-26T03:26:14.799Z,26.27
2019-02-26T03:29:18.396Z,27.60
2019-02-26T03:32:23.258Z,27.77
2019-02-26T03:35:28.156Z,27.13
2019-02-26T03:38:34.266Z,28.80
2019-02-26T03:41:39.668Z,28.13
2019-02-26T03:44:46.914Z,27.00
2019-02-26T03:47:51.074Z,26.67
2019-02-26T03:51:00.590Z,27.77
2019-02-26T03:54:02.570Z,27.53
2019-02-26T03:57:08.997Z,26.87
2019-02-26T04:00:17.434Z,28.77
2019-02-26T04:03:22.359Z,28.33
2019-02-26T04:06:27.327Z,28.47
2019-02-26T04:09:32.268Z,27.53
2019-02-26T04:12:41.887Z,28.73
2019-02-26T04:15:44.699Z,27.77
2019-02-26T04:18:51.999Z,29.47
2019-02-26T04:22:31.143Z,28.83
2019-02-26T04:25:42.080Z,29.93
2019-02-26T04:28:57.340Z,30.47
2019-02-26T04:32:12.207Z,28.17
2019-02-26T04:35:19.398Z,29.40
2019-02-26T04:38:31.176Z,30.10
2019-02-26T04:41:55.565Z,29.37
2019-02-26T04:45:09.603Z,29.37
2019-02-26T04:48:20.192Z,29.17
2019-02-26T04:51:24.358Z,29.87
2019-02-26T04:54:31.162Z,27.70
2019-02-26T04:57:39.422Z,28.53
2019-02-26T05:00:42.494Z,29.67
2019-02-26T05:03:47.349Z,28.60
2019-02-26T05:06:52.197Z,27.80
2019-02-26T05:09:59.435Z,28.80
2019-02-26T05:13:06.448Z,29.53
2019-02-26T05:16:10.341Z,29.20
2019-02-26T05:19:17.003Z,29.27
2019-02-26T05:22:22.861Z,30.30
2019-02-26T05:25:28.299Z,29.27
2019-02-26T05:28:37.696Z,31.47
2019-02-26T05:31:40.318Z,30.03
2019-02-26T05:34:50.223Z,30.13
2019-02-26T05:37:55.495Z,31.17
2019-02-26T05:40:59.561Z,28.73
2019-02-26T05:44:07.532Z,28.23
2019-02-26T05:47:13.010Z,29.10
2019-02-26T05:50:17.457Z,30.25
2019-02-26T05:53:22.346Z,29.83
2019-02-26T05:56:27.222Z,29.13
2019-02-26T05:59:32.106Z,28.40
2019-02-26T06:02:40.139Z,29.07
2019-02-26T06:05:46.463Z,30.63
2019-02-26T06:08:51.098Z,32.30
2019-02-26T06:11:57.179Z,32.70
2019-02-26T06:15:05.191Z,33.30
2019-02-26T06:18:08.657Z,35.23
2019-02-26T06:21:15.794Z,34.33
2019-02-26T06:24:22.393Z,35.20
2019-02-26T06:27:27.386Z,35.83
2019-02-26T06:30:33.921Z,34.18
2019-02-26T06:33:40.947Z,34.77
2019-02-26T06:36:47.112Z,36.43
2019-02-26T06:39:55.180Z,35.35
2019-02-26T06:42:59.495Z,33.05
2019-02-26T06:46:05.365Z,32.83
2019-02-26T06:49:10.953Z,32.60
2019-02-26T06:52:17.921Z,32.40
2019-02-26T06:55:22.337Z,33.48
2019-02-26T06:58:27.719Z,34.23
2019-02-26T07:01:34.734Z,33.00
2019-02-26T07:04:39.105Z,34.23
2019-02-26T07:07:43.948Z,34.55
2019-02-26T07:10:48.880Z,34.83
2019-02-26T07:13:53.949Z,34.90
2019-02-26T07:16:59.182Z,37.90
2019-02-26T07:20:06.314Z,36.93
2019-02-26T07:23:13.019Z,34.77
2019-02-26T07:26:18.510Z,37.30
2019-02-26T07:29:24.320Z,37.97
2019-02-26T07:32:29.168Z,37.80
2019-02-26T07:35:35.088Z,40.30
2019-02-26T07:38:41.594Z,38.47
2019-02-26T07:41:48.988Z,36.23
2019-02-26T07:44:53.691Z,35.50
2019-02-26T07:48:00.849Z,37.43
2019-02-26T07:51:05.396Z,36.17
2019-02-26T07:54:10.338Z,37.47
2019-02-26T07:57:15.758Z,37.73
2019-02-26T08:00:23.824Z,37.47
2019-02-26T08:03:29.450Z,37.83
2019-02-26T08:06:36.151Z,35.63
2019-02-26T08:09:40.916Z,35.37
2019-02-26T08:12:45.775Z,36.00
2019-02-26T08:15:50.582Z,36.20
2019-02-26T08:18:57.142Z,37.30
2019-02-26T08:22:02.039Z,32.63
2019-02-26T08:25:08.472Z,35.58
2019-02-26T08:28:15.316Z,35.97
2019-02-26T08:31:20.596Z,36.43
2019-02-26T08:34:27.507Z,36.13
2019-02-26T08:37:32.429Z,36.90
2019-02-26T08:40:37.543Z,37.43
2019-02-26T08:43:46.374Z,39.07
2019-02-26T08:46:49.099Z,38.03
2019-02-26T08:49:53.951Z,38.00
2019-02-26T08:52:58.829Z,37.53
2019-02-26T08:56:04.144Z,37.30
2019-02-26T08:59:09.224Z,36.93
2019-02-26T09:02:14.059Z,37.20
2019-02-26T09:05:18.978Z,38.57
2019-02-26T09:08:23.823Z,38.97
2019-02-26T09:11:30.892Z,36.50
2019-02-26T09:14:37.664Z,39.30
2019-02-26T09:17:42.157Z,38.63
2019-02-26T09:20:47.058Z,40.23
2019-02-26T09:23:54.902Z,40.37
2019-02-26T09:27:00.457Z,41.67
2019-02-26T09:30:11.821Z,42.60
2019-02-26T09:33:17.338Z,40.17
2019-02-26T09:36:23.631Z,41.53
2019-02-26T09:39:29.417Z,40.70
2019-02-26T09:42:35.305Z,40.93
2019-02-26T09:45:41.727Z,40.50
2019-02-26T09:48:46.697Z,43.80
2019-02-26T09:51:51.549Z,43.10
2019-02-26T09:54:56.414Z,42.80
2019-02-26T09:58:02.592Z,41.73
2019-02-26T10:01:09.135Z,42.20
2019-02-26T10:04:14.184Z,43.10
2019-02-26T10:07:19.464Z,43.02
2019-02-26T10:10:27.601Z,43.13
2019-02-26T10:13:30.984Z,41.15
2019-02-26T10:16:35.858Z,40.73
2019-02-26T10:19:42.882Z,39.87
2019-02-26T10:22:47.285Z,41.07
2019-02-26T10:25:55.529Z,40.90
2019-02-26T10:29:04.103Z,41.07
2019-02-26T10:32:05.227Z,40.63
2019-02-26T10:35:16.554Z,40.50
2019-02-26T10:38:24.069Z,39.50
2019-02-26T10:41:29.069Z,39.37
2019-02-26T10:44:33.950Z,40.10
2019-02-26T10:47:38.859Z,36.47
2019-02-26T10:50:46.991Z,38.93
2019-02-26T10:53:50.370Z,36.17
2019-02-26T10:56:57.173Z,36.90
2019-02-26T11:00:02.591Z,37.85
2019-02-26T11:03:12.933Z,39.27
2019-02-26T11:06:18.998Z,37.40
2019-02-26T11:09:26.540Z,38.43
2019-02-26T11:12:33.349Z,39.40
2019-02-26T11:15:36.489Z,40.55
2019-02-26T11:18:42.725Z,39.20
2019-02-26T11:21:50.040Z,39.05
2019-02-26T11:24:56.190Z,39.07
2019-02-26T11:28:02.541Z,39.63
2019-02-26T11:31:08.985Z,41.00
2019-02-26T11:34:14.405Z,42.33
2019-02-26T11:37:20.313Z,42.15
2019-02-26T11:40:28.236Z,43.13
2019-02-26T11:43:32.910Z,38.80
2019-02-26T11:46:37.800Z,40.30
2019-02-26T11:49:44.306Z,39.40
2019-02-26T11:52:54.303Z,39.27
2019-02-26T11:55:59.145Z,37.57
2019-02-26T11:59:06.536Z,39.60
2019-02-26T12:02:10.255Z,38.65
2019-02-26T12:05:15.170Z,40.13
2019-02-26T12:08:22.337Z,37.53
2019-02-26T12:11:26.557Z,40.07
2019-02-26T12:14:34.476Z,40.40
2019-02-26T12:17:39.034Z,39.13
2019-02-26T12:20:46.582Z,41.20
2019-02-26T12:23:50.478Z,37.77
2019-02-26T12:26:55.409Z,39.60
2019-02-26T12:30:00.540Z,41.10
2019-02-26T12:33:07.712Z,41.80
2019-02-26T12:36:12.062Z,40.57
2019-02-26T12:39:18.644Z,41.57
2019-02-26T12:42:23.482Z,40.80
2019-02-26T12:45:29.322Z,40.20
2019-02-26T12:48:37.050Z,40.27
2019-02-26T12:51:41.458Z,39.77
2019-02-26T12:54:46.349Z,39.57
2019-02-26T12:57:52.791Z,38.20
2019-02-26T13:00:57.883Z,37.93
2019-02-26T13:04:02.702Z,39.30
2019-02-26T13:07:09.313Z,38.33
2019-02-26T13:10:24.349Z,37.13
2019-02-26T13:13:29.202Z,37.63
2019-02-26T13:16:34.079Z,36.03
2019-02-26T13:19:39.332Z,36.67
2019-02-26T13:25:51.131Z,40.10
2019-02-26T13:28:59.536Z,37.10
2019-02-26T13:32:02.599Z,38.13
2019-02-26T13:35:09.942Z,38.38
2019-02-26T13:38:14.821Z,36.97
2019-02-26T13:41:29.613Z,39.27
2019-02-26T13:44:26.235Z,37.50
2019-02-26T13:47:31.202Z,38.13
2019-02-26T13:50:38.958Z,41.13
2019-02-26T13:53:44.143Z,40.03
2019-02-26T13:56:49.079Z,40.10
2019-02-26T13:59:54.040Z,40.10
2019-02-26T14:02:58.901Z,38.73
2019-02-26T14:06:04.198Z,40.33
2019-02-26T14:09:09.272Z,39.13
2019-02-26T14:12:14.432Z,37.28
2019-02-26T14:15:21.774Z,38.03
2019-02-26T14:18:27.035Z,37.47
2019-02-26T14:21:31.886Z,36.43
2019-02-26T14:24:36.740Z,38.37
2019-02-26T14:27:41.629Z,37.97
2019-02-26T14:30:46.558Z,37.60
2019-02-26T14:33:51.466Z,39.60
2019-02-26T14:36:56.570Z,38.27
2019-02-26T14:40:01.470Z,38.80
2019-02-26T14:43:07.921Z,37.70
2019-02-26T14:46:12.761Z,38.33
2019-02-26T14:49:17.976Z,39.20
2019-02-26T14:52:22.855Z,36.57
2019-02-26T14:55:27.700Z,37.30
2019-02-26T14:58:35.522Z,35.37
2019-02-26T15:01:40.369Z,39.63
2019-02-26T15:04:45.389Z,40.37
2019-02-26T15:07:50.242Z,38.27
2019-02-26T15:10:55.105Z,39.37
2019-02-26T15:14:00.351Z,37.17
2019-02-26T15:17:05.346Z,38.50
2019-02-26T15:20:14.839Z,37.13
2019-02-26T15:23:19.669Z,39.67
2019-02-26T15:26:24.601Z,39.07
2019-02-26T15:29:29.502Z,46.02
2019-02-26T15:32:34.400Z,41.70
2019-02-26T15:35:39.462Z,38.63
2019-02-26T15:38:44.277Z,39.53
2019-02-26T15:41:50.546Z,40.43
2019-02-26T15:44:57.661Z,37.13
2019-02-26T15:48:03.966Z,41.50
2019-02-26T15:51:14.370Z,40.63
2019-02-26T15:54:16.541Z,41.03
2019-02-26T15:57:21.405Z,42.03
2019-02-26T16:00:26.641Z,42.13
2019-02-26T16:03:31.579Z,40.33
2019-02-26T16:06:36.510Z,41.60
2019-02-26T16:09:41.466Z,40.57
2019-02-26T16:12:46.442Z,43.30
2019-02-26T16:15:51.371Z,44.33
2019-02-26T16:18:56.290Z,43.83
2019-02-26T16:22:01.255Z,38.63
2019-02-26T16:25:08.201Z,43.05
2019-02-26T16:28:13.150Z,41.13
2019-02-26T16:31:18.036Z,41.70
2019-02-26T16:34:22.932Z,42.40
2019-02-26T16:37:27.816Z,43.60
2019-02-26T16:40:32.662Z,41.87
2019-02-26T16:43:37.618Z,39.43
2019-02-26T16:46:42.704Z,43.37
2019-02-26T16:49:47.671Z,43.10
2019-02-26T16:52:52.702Z,40.97
2019-02-26T16:55:57.517Z,44.97
2019-02-26T16:59:02.373Z,43.90
2019-02-26T17:02:07.402Z,39.23
2019-02-26T17:05:14.999Z,40.80
2019-02-26T17:08:19.095Z,39.30
2019-02-26T17:11:24.020Z,43.40
2019-02-26T17:14:28.941Z,43.17
2019-02-26T17:17:34.400Z,44.90
2019-02-26T17:20:40.622Z,46.40
2019-02-26T17:23:47.718Z,45.23
2019-02-26T17:26:52.724Z,43.97
2019-02-26T17:29:57.666Z,43.53
2019-02-26T17:33:02.522Z,40.20
2019-02-26T17:36:07.372Z,44.53
2019-02-26T17:39:12.262Z,46.63
2019-02-26T17:42:17.810Z,48.63
2019-02-26T17:45:28.402Z,45.53
2019-02-26T17:48:43.269Z,46.50
2019-02-26T17:51:42.803Z,44.33
2019-02-26T17:54:49.250Z,46.53
2019-02-26T17:57:54.819Z,49.35
2019-02-26T18:00:59.646Z,48.37
2019-02-26T18:04:06.290Z,47.63
2019-02-26T18:07:11.433Z,48.33
2019-02-26T18:10:18.359Z,47.37
2019-02-26T18:13:23.250Z,48.63
2019-02-26T18:16:28.095Z,46.37
2019-02-26T18:19:32.946Z,46.93
2019-02-26T18:22:37.794Z,45.93
2019-02-26T18:25:43.074Z,44.57
2019-02-26T18:28:48.406Z,46.03
2019-02-26T18:31:53.379Z,42.07
2019-02-26T18:34:58.330Z,44.67
2019-02-26T18:38:03.150Z,41.57
2019-02-26T18:41:07.998Z,41.37
2019-02-26T18:44:12.806Z,41.83
2019-02-26T18:47:17.687Z,40.03
2019-02-26T18:50:22.535Z,43.47
2019-02-26T18:53:27.346Z,39.97
2019-02-26T18:56:32.237Z,42.50
2019-02-26T18:59:37.974Z,42.30
2019-02-26T19:02:42.822Z,40.17
2019-02-26T19:05:47.643Z,39.40
2019-02-26T19:08:52.523Z,36.10
2019-02-26T19:11:57.755Z,35.37
2019-02-26T19:15:03.332Z,41.20
2019-02-26T19:18:08.755Z,35.43
2019-02-26T19:21:13.584Z,38.13
2019-02-26T19:24:18.493Z,41.23
2019-02-26T19:27:23.549Z,37.17
2019-02-26T19:30:28.396Z,36.67
2019-02-26T19:33:33.266Z,36.07
2019-02-26T19:36:38.106Z,37.37
2019-02-26T19:39:42.953Z,36.10
2019-02-26T19:42:47.839Z,35.67
2019-02-26T19:45:52.726Z,34.40
2019-02-26T19:48:57.579Z,41.43
2019-02-26T19:52:02.405Z,38.78
2019-02-26T19:55:15.667Z,36.73
2019-02-26T19:58:20.552Z,35.27
2019-02-26T20:01:25.875Z,35.13
2019-02-26T20:06:58.593Z,38.27
2019-02-26T20:10:04.542Z,40.63
2019-02-26T20:13:12.637Z,39.97
2019-02-26T20:16:17.195Z,37.03
2019-02-26T20:19:22.531Z,37.73
2019-02-26T20:22:30.123Z,38.40
2019-02-26T20:25:34.518Z,41.50
2019-02-26T20:28:39.922Z,37.30
2019-02-26T20:31:45.070Z,42.63
2019-02-26T20:34:50.149Z,38.93
2019-02-26T20:37:58.646Z,40.47
2019-02-26T20:41:02.086Z,40.40
2019-02-26T20:44:09.762Z,36.97
2019-02-26T20:47:14.273Z,36.27
2019-02-26T20:50:21.105Z,37.10
2019-02-26T20:53:26.240Z,40.10
2019-02-26T20:56:31.555Z,37.20
2019-02-26T20:59:36.842Z,36.23
2019-02-26T21:02:42.258Z,35.97
2019-02-26T21:05:47.383Z,37.43
2019-02-26T21:08:52.433Z,37.83
2019-02-26T21:11:57.845Z,37.53
2019-02-26T21:15:02.967Z,36.70
2019-02-26T21:18:08.122Z,38.53
2019-02-26T21:21:14.046Z,40.63
2019-02-26T21:24:19.814Z,37.23
2019-02-26T21:27:25.924Z,40.27
2019-02-26T21:30:32.819Z,40.03
2019-02-26T21:33:37.954Z,40.60
2019-02-26T21:36:43.004Z,38.97
2019-02-26T21:39:48.126Z,41.67
2019-02-26T21:42:53.540Z,41.20
2019-02-26T21:45:58.652Z,40.73
2019-02-26T21:49:04.012Z,39.60
2019-02-26T21:52:09.564Z,43.17
2019-02-26T21:55:14.973Z,40.33
2019-02-26T21:58:20.376Z,46.10
2019-02-26T22:01:25.829Z,44.33
2019-02-26T22:04:31.956Z,44.60
2019-02-26T22:07:37.885Z,45.70
2019-02-26T22:10:43.504Z,42.10
2019-02-26T22:13:48.649Z,41.73
2019-02-26T22:16:54.020Z,45.90
2019-02-26T22:19:59.077Z,42.33
2019-02-26T22:23:04.362Z,44.13
2019-02-26T22:26:09.625Z,41.13
2019-02-26T22:29:15.180Z,39.63
2019-02-26T22:32:20.996Z,42.40
2019-02-26T22:35:26.492Z,40.33
2019-02-26T22:38:31.915Z,40.50
2019-02-26T22:41:37.050Z,42.53
2019-02-26T22:44:43.169Z,40.57
2019-02-26T22:47:48.267Z,40.47
2019-02-26T22:50:53.376Z,44.00
2019-02-26T22:53:58.558Z,40.10
2019-02-26T22:57:03.645Z,38.23
2019-02-26T23:00:28.661Z,40.57
2019-02-26T23:03:35.424Z,40.13
2019-02-26T23:06:40.580Z,40.13
2019-02-26T23:09:45.843Z,36.33
2019-02-26T23:12:51.349Z,36.33
2019-02-26T23:15:58.131Z,39.05
2019-02-26T23:19:03.799Z,41.50
2019-02-26T23:22:10.109Z,41.27
2019-02-26T23:25:15.567Z,39.37
2019-02-26T23:28:21.986Z,40.97
2019-02-26T23:31:28.145Z,39.47
2019-02-26T23:34:33.326Z,42.23
2019-02-26T23:37:38.415Z,38.00
2019-02-26T23:40:43.710Z,41.83
2019-02-26T23:43:48.753Z,40.03
2019-02-26T23:46:53.883Z,39.87
2019-02-26T23:49:58.974Z,36.83
2019-02-26T23:53:04.262Z,41.40
2019-02-26T23:56:09.346Z,39.73
2019-02-26T23:59:14.691Z,37.30
